La Plata, NM

5:07 AM MDT on September 20, 2014 (GMT -0600)
Cortez Municipal | Change Station
CLOSE
Current Station
Airport
Location: Cortez,
Elevation: 5915 ft
Nearby Weather Stations

Elev 5915 ft 37.31 °N, 108.63 °W | Updated 14 minutes ago

Clear
Clear
49 °F
Feels Like 49 °F
N
4
Wind Variable Wind from ENE

Today
High -- | Low -- °F
--% Chance of Precip.
Yesterday
High -- | Low -- °F
Precip. -- in
6:58 AM 7:12 PM
Waning Crescent, 13% visible
Pressure 29.93 in
Visibility 10.0 miles
Clouds Clear
Dew Point 44 °F
Humidity 83%
Rainfall 0.00 in
Snow Depth 0 in , 0 in , 0 in
UV 0 out of 12
Pollen 6.30 out of 12
Air Quality Not available.
Flu Activity Not available.
METAR KCEZ 201053Z AUTO 06003KT 10SM CLR 09/07 A3014 RMK AO2 SLP133 T00940067

More Conditions Fewer Conditions

Pressure 29.93 in
Visibility 10.0 miles
Clouds Clear
Dew Point 44 °F
Humidity 83%
Rainfall 0.00 in
Snow Depth 0 in , 0 in , 0 in
UV 0 out of 12
Pollen 6.30 out of 12
Air Quality Not available.
Flu Activity Not available.
METAR KCEZ 201053Z AUTO 06003KT 10SM CLR 09/07 A3014 RMK AO2 SLP133 T00940067

More Conditions Fewer Conditions

10-Day Weather Forecast

Almanac

Astronomy

Sep. 20, 2014 Rise Set
Actual Time 6:58 AM MDT 7:12 PM MDT
Civil Twilight 6:33 AM MDT 7:38 PM MDT
Nautical Twilight 6:02 AM MDT 8:08 PM MDT
Astronomical Twilight 5:31 AM MDT 8:39 PM MDT
Moon 3:44 AM MDT 5:14 PM MDT
Length of Visible Light 13h 05m
Length of Day
12h 13m
Tomorrow will be 2m 20s shorter.
Waning Crescent, 13% of the Moon is Illuminated
Today
Waning Crescent
Sep 24
New
Oct 1
First Quarter
Oct 8
Full
Oct 15
Last Quarter

Today's Extremes

State Highs State Lows

Community

WunderPhotos

Upload Photos

1,754,829 photos uploaded!

WunderBlogs® & News

Nearby

Snow Depth

Station Depth Elevation
McKnight Cabin 0 in 9240 ft
Signal Peak 0 in 8360 ft
Rice Park 0 in 8460 ft
Senorita Divide #2 0 in 8600 ft
Sierra Blanca 1 in 10280 ft

Earthquake Activity

City Distance Mag. Time & Date
No recent earthquake activity has been reported nearby.
Minimum magnitude displayed is 2.5.

Coastal Water Temperatures

Place Temperature
No Stations Reporting

Nearby Weather Stations